sensor_id;sensor_type;location;lat;lon;timestamp;P1;durP1;ratioP1;P2;durP2;ratioP2
71176;SDS011;58877;51.992;4.504;2023-02-26T00:01:11;2.88;;;2.63;;
71176;SDS011;58877;51.992;4.504;2023-02-26T00:03:38;2.71;;;2.50;;
71176;SDS011;58877;51.992;4.504;2023-02-26T00:06:04;2.70;;;2.44;;
71176;SDS011;58877;51.992;4.504;2023-02-26T00:08:31;2.61;;;2.31;;
71176;SDS011;58877;51.992;4.504;2023-02-26T00:10:57;2.86;;;2.47;;
71176;SDS011;58877;51.992;4.504;2023-02-26T00:13:24;2.72;;;2.31;;
71176;SDS011;58877;51.992;4.504;2023-02-26T00:15:50;2.71;;;2.30;;
71176;SDS011;58877;51.992;4.504;2023-02-26T00:18:23;2.84;;;2.45;;
71176;SDS011;58877;51.992;4.504;2023-02-26T00:20:49;2.67;;;2.30;;
71176;SDS011;58877;51.992;4.504;2023-02-26T00:23:15;2.67;;;2.30;;
71176;SDS011;58877;51.992;4.504;2023-02-26T00:25:41;2.80;;;2.41;;
71176;SDS011;58877;51.992;4.504;2023-02-26T00:28:07;2.49;;;2.17;;
71176;SDS011;58877;51.992;4.504;2023-02-26T00:30:33;2.60;;;2.28;;
71176;SDS011;58877;51.992;4.504;2023-02-26T00:33:00;2.50;;;2.14;;
71176;SDS011;58877;51.992;4.504;2023-02-26T00:35:26;2.36;;;1.99;;
71176;SDS011;58877;51.992;4.504;2023-02-26T00:43:17;2.73;;;2.27;;
71176;SDS011;58877;51.992;4.504;2023-02-26T00:46:02;2.34;;;1.96;;
71176;SDS011;58877;51.992;4.504;2023-02-26T00:51:52;2.34;;;1.93;;
71176;SDS011;58877;51.992;4.504;2023-02-26T00:54:29;2.56;;;2.11;;
71176;SDS011;58877;51.992;4.504;2023-02-26T00:56:56;2.52;;;2.08;;
71176;SDS011;58877;51.992;4.504;2023-02-26T00:59:23;2.54;;;2.09;;
71176;SDS011;58877;51.992;4.504;2023-02-26T01:01:49;2.39;;;1.93;;
71176;SDS011;58877;51.992;4.504;2023-02-26T01:04:18;1.90;;;1.52;;
71176;SDS011;58877;51.992;4.504;2023-02-26T01:06:49;2.09;;;1.66;;
71176;SDS011;58877;51.992;4.504;2023-02-26T01:11:59;2.66;;;2.27;;
71176;SDS011;58877;51.992;4.504;2023-02-26T01:14:28;2.81;;;2.44;;
71176;SDS011;58877;51.992;4.504;2023-02-26T01:17:03;2.85;;;2.48;;
71176;SDS011;58877;51.992;4.504;2023-02-26T01:20:12;3.03;;;2.57;;
71176;SDS011;58877;51.992;4.504;2023-02-26T01:22:45;3.43;;;2.95;;
71176;SDS011;58877;51.992;4.504;2023-02-26T01:27:46;2.98;;;2.61;;
71176;SDS011;58877;51.992;4.504;2023-02-26T01:30:12;2.39;;;2.10;;
71176;SDS011;58877;51.992;4.504;2023-02-26T01:32:42;2.17;;;1.90;;
71176;SDS011;58877;51.992;4.504;2023-02-26T01:43:11;1.80;;;1.59;;
71176;SDS011;58877;51.992;4.504;2023-02-26T01:45:53;2.25;;;1.96;;
71176;SDS011;58877;51.992;4.504;2023-02-26T01:51:14;2.27;;;1.88;;
71176;SDS011;58877;51.992;4.504;2023-02-26T01:53:40;2.61;;;2.13;;
71176;SDS011;58877;51.992;4.504;2023-02-26T01:56:14;2.42;;;1.97;;
71176;SDS011;58877;51.992;4.504;2023-02-26T01:58:42;2.15;;;1.78;;
71176;SDS011;58877;51.992;4.504;2023-02-26T02:01:10;2.40;;;1.93;;
71176;SDS011;58877;51.992;4.504;2023-02-26T02:03:36;2.47;;;1.96;;
71176;SDS011;58877;51.992;4.504;2023-02-26T02:06:06;2.59;;;2.05;;
71176;SDS011;58877;51.992;4.504;2023-02-26T02:08:36;2.58;;;2.07;;
71176;SDS011;58877;51.992;4.504;2023-02-26T02:11:02;2.62;;;2.09;;
71176;SDS011;58877;51.992;4.504;2023-02-26T02:19:25;2.13;;;1.66;;
71176;SDS011;58877;51.992;4.504;2023-02-26T02:30:19;2.71;;;2.04;;
71176;SDS011;58877;51.992;4.504;2023-02-26T02:33:13;2.67;;;1.95;;
71176;SDS011;58877;51.992;4.504;2023-02-26T02:35:47;2.91;;;2.08;;
71176;SDS011;58877;51.992;4.504;2023-02-26T02:38:25;2.83;;;1.99;;
71176;SDS011;58877;51.992;4.504;2023-02-26T02:41:16;2.56;;;1.82;;
71176;SDS011;58877;51.992;4.504;2023-02-26T02:43:49;2.64;;;1.87;;
71176;SDS011;58877;51.992;4.504;2023-02-26T02:46:18;2.27;;;1.62;;
71176;SDS011;58877;51.992;4.504;2023-02-26T02:49:03;2.78;;;1.98;;
71176;SDS011;58877;51.992;4.504;2023-02-26T02:52:05;3.45;;;2.41;;
71176;SDS011;58877;51.992;4.504;2023-02-26T02:54:54;2.96;;;2.09;;
71176;SDS011;58877;51.992;4.504;2023-02-26T02:57:39;2.54;;;1.81;;
71176;SDS011;58877;51.992;4.504;2023-02-26T03:00:12;2.51;;;1.80;;
71176;SDS011;58877;51.992;4.504;2023-02-26T03:05:53;2.72;;;1.92;;
71176;SDS011;58877;51.992;4.504;2023-02-26T03:08:20;2.50;;;1.77;;
71176;SDS011;58877;51.992;4.504;2023-02-26T03:10:50;2.80;;;1.93;;
71176;SDS011;58877;51.992;4.504;2023-02-26T03:13:17;2.71;;;1.87;;
71176;SDS011;58877;51.992;4.504;2023-02-26T03:16:05;2.49;;;1.70;;
71176;SDS011;58877;51.992;4.504;2023-02-26T03:18:47;2.45;;;1.67;;
71176;SDS011;58877;51.992;4.504;2023-02-26T03:26:46;3.24;;;2.12;;
71176;SDS011;58877;51.992;4.504;2023-02-26T03:29:30;3.86;;;2.57;;
71176;SDS011;58877;51.992;4.504;2023-02-26T03:32:10;3.91;;;2.69;;
71176;SDS011;58877;51.992;4.504;2023-02-26T03:35:04;4.01;;;2.79;;
71176;SDS011;58877;51.992;4.504;2023-02-26T03:37:43;4.06;;;2.91;;
71176;SDS011;58877;51.992;4.504;2023-02-26T03:40:18;3.31;;;2.47;;
71176;SDS011;58877;51.992;4.504;2023-02-26T03:43:11;3.80;;;3.00;;
71176;SDS011;58877;51.992;4.504;2023-02-26T03:45:45;3.07;;;2.51;;
71176;SDS011;58877;51.992;4.504;2023-02-26T03:48:17;3.56;;;2.90;;
71176;SDS011;58877;51.992;4.504;2023-02-26T03:50:49;3.19;;;2.65;;
71176;SDS011;58877;51.992;4.504;2023-02-26T03:53:20;3.68;;;3.20;;
71176;SDS011;58877;51.992;4.504;2023-02-26T03:58:28;2.99;;;2.51;;
71176;SDS011;58877;51.992;4.504;2023-02-26T04:00:57;2.70;;;2.21;;
71176;SDS011;58877;51.992;4.504;2023-02-26T04:03:29;2.61;;;2.11;;
71176;SDS011;58877;51.992;4.504;2023-02-26T04:05:59;2.91;;;2.38;;
71176;SDS011;58877;51.992;4.504;2023-02-26T04:08:27;3.09;;;2.49;;
71176;SDS011;58877;51.992;4.504;2023-02-26T04:10:58;2.66;;;2.14;;
71176;SDS011;58877;51.992;4.504;2023-02-26T04:13:30;2.63;;;2.15;;
71176;SDS011;58877;51.992;4.504;2023-02-26T04:15:56;2.64;;;2.16;;
71176;SDS011;58877;51.992;4.504;2023-02-26T04:18:22;2.60;;;2.08;;
71176;SDS011;58877;51.992;4.504;2023-02-26T04:20:47;2.54;;;1.99;;
71176;SDS011;58877;51.992;4.504;2023-02-26T04:23:13;1.96;;;1.50;;
71176;SDS011;58877;51.992;4.504;2023-02-26T04:25:39;2.63;;;1.94;;
71176;SDS011;58877;51.992;4.504;2023-02-26T04:28:05;2.32;;;1.64;;
71176;SDS011;58877;51.992;4.504;2023-02-26T04:30:30;2.91;;;2.01;;
71176;SDS011;58877;51.992;4.504;2023-02-26T04:32:56;2.83;;;1.92;;
71176;SDS011;58877;51.992;4.504;2023-02-26T04:35:21;2.89;;;1.94;;
71176;SDS011;58877;51.992;4.504;2023-02-26T04:37:47;2.81;;;1.89;;
71176;SDS011;58877;51.992;4.504;2023-02-26T04:40:13;3.12;;;2.10;;
71176;SDS011;58877;51.992;4.504;2023-02-26T04:42:39;2.66;;;1.78;;
71176;SDS011;58877;51.992;4.504;2023-02-26T04:45:04;2.57;;;1.73;;
71176;SDS011;58877;51.992;4.504;2023-02-26T04:47:33;3.00;;;2.02;;
71176;SDS011;58877;51.992;4.504;2023-02-26T04:49:59;2.74;;;1.87;;
71176;SDS011;58877;51.992;4.504;2023-02-26T04:52:25;3.01;;;2.04;;
71176;SDS011;58877;51.992;4.504;2023-02-26T04:54:50;3.44;;;2.36;;
71176;SDS011;58877;51.992;4.504;2023-02-26T04:57:16;3.09;;;2.13;;
71176;SDS011;58877;51.992;4.504;2023-02-26T04:59:41;3.79;;;2.63;;
71176;SDS011;58877;51.992;4.504;2023-02-26T05:02:07;3.19;;;2.30;;
71176;SDS011;58877;51.992;4.504;2023-02-26T05:04:33;3.35;;;2.54;;
71176;SDS011;58877;51.992;4.504;2023-02-26T05:06:58;3.31;;;2.56;;
71176;SDS011;58877;51.992;4.504;2023-02-26T05:09:24;3.69;;;3.01;;
71176;SDS011;58877;51.992;4.504;2023-02-26T05:11:50;3.29;;;2.84;;
71176;SDS011;58877;51.992;4.504;2023-02-26T05:14:15;3.60;;;3.20;;
71176;SDS011;58877;51.992;4.504;2023-02-26T05:16:41;3.30;;;2.97;;
71176;SDS011;58877;51.992;4.504;2023-02-26T05:19:07;3.58;;;3.24;;
71176;SDS011;58877;51.992;4.504;2023-02-26T05:21:33;3.81;;;3.56;;
71176;SDS011;58877;51.992;4.504;2023-02-26T05:23:59;3.21;;;3.00;;
71176;SDS011;58877;51.992;4.504;2023-02-26T05:26:25;3.43;;;3.12;;
71176;SDS011;58877;51.992;4.504;2023-02-26T05:28:50;2.59;;;2.33;;
71176;SDS011;58877;51.992;4.504;2023-02-26T05:31:16;2.34;;;2.09;;
71176;SDS011;58877;51.992;4.504;2023-02-26T05:33:42;2.31;;;2.00;;
71176;SDS011;58877;51.992;4.504;2023-02-26T05:36:08;2.46;;;2.02;;
71176;SDS011;58877;51.992;4.504;2023-02-26T05:38:34;1.86;;;1.47;;
71176;SDS011;58877;51.992;4.504;2023-02-26T05:41:00;2.08;;;1.63;;
71176;SDS011;58877;51.992;4.504;2023-02-26T05:43:25;1.82;;;1.41;;
71176;SDS011;58877;51.992;4.504;2023-02-26T05:45:54;1.82;;;1.40;;
71176;SDS011;58877;51.992;4.504;2023-02-26T05:48:20;1.97;;;1.51;;
71176;SDS011;58877;51.992;4.504;2023-02-26T05:50:47;1.95;;;1.48;;
71176;SDS011;58877;51.992;4.504;2023-02-26T05:53:14;2.28;;;1.72;;
71176;SDS011;58877;51.992;4.504;2023-02-26T05:55:39;2.59;;;1.90;;
71176;SDS011;58877;51.992;4.504;2023-02-26T05:58:05;2.08;;;1.54;;
71176;SDS011;58877;51.992;4.504;2023-02-26T06:00:31;2.14;;;1.60;;
71176;SDS011;58877;51.992;4.504;2023-02-26T06:02:56;2.23;;;1.68;;
71176;SDS011;58877;51.992;4.504;2023-02-26T06:05:22;2.42;;;1.78;;
71176;SDS011;58877;51.992;4.504;2023-02-26T06:07:47;2.42;;;1.77;;
71176;SDS011;58877;51.992;4.504;2023-02-26T06:10:13;2.85;;;2.03;;
71176;SDS011;58877;51.992;4.504;2023-02-26T06:12:39;3.13;;;2.19;;
71176;SDS011;58877;51.992;4.504;2023-02-26T06:15:05;2.76;;;1.95;;
71176;SDS011;58877;51.992;4.504;2023-02-26T06:17:32;3.30;;;2.28;;
71176;SDS011;58877;51.992;4.504;2023-02-26T06:19:58;2.80;;;1.94;;
71176;SDS011;58877;51.992;4.504;2023-02-26T06:22:23;2.95;;;2.07;;
71176;SDS011;58877;51.992;4.504;2023-02-26T06:24:49;3.00;;;2.12;;
71176;SDS011;58877;51.992;4.504;2023-02-26T06:27:15;3.07;;;2.13;;
71176;SDS011;58877;51.992;4.504;2023-02-26T06:29:41;3.42;;;2.36;;
71176;SDS011;58877;51.992;4.504;2023-02-26T06:32:07;2.82;;;1.96;;
71176;SDS011;58877;51.992;4.504;2023-02-26T06:34:33;2.74;;;1.92;;
71176;SDS011;58877;51.992;4.504;2023-02-26T06:36:58;3.11;;;2.18;;
71176;SDS011;58877;51.992;4.504;2023-02-26T06:39:24;3.33;;;2.30;;
71176;SDS011;58877;51.992;4.504;2023-02-26T06:41:50;2.53;;;1.76;;
71176;SDS011;58877;51.992;4.504;2023-02-26T06:44:15;2.34;;;1.66;;
71176;SDS011;58877;51.992;4.504;2023-02-26T06:46:44;2.46;;;1.77;;
71176;SDS011;58877;51.992;4.504;2023-02-26T06:49:10;2.58;;;1.86;;
71176;SDS011;58877;51.992;4.504;2023-02-26T06:51:35;2.99;;;2.15;;
71176;SDS011;58877;51.992;4.504;2023-02-26T06:54:01;3.49;;;2.50;;
71176;SDS011;58877;51.992;4.504;2023-02-26T06:56:27;4.41;;;3.38;;
71176;SDS011;58877;51.992;4.504;2023-02-26T06:58:53;4.05;;;3.35;;
71176;SDS011;58877;51.992;4.504;2023-02-26T07:01:19;3.65;;;3.22;;
71176;SDS011;58877;51.992;4.504;2023-02-26T07:03:45;3.25;;;2.98;;
71176;SDS011;58877;51.992;4.504;2023-02-26T07:06:11;3.73;;;3.40;;
71176;SDS011;58877;51.992;4.504;2023-02-26T07:08:38;3.90;;;3.53;;
71176;SDS011;58877;51.992;4.504;2023-02-26T07:11:07;4.07;;;3.66;;
71176;SDS011;58877;51.992;4.504;2023-02-26T07:13:36;3.39;;;3.15;;
71176;SDS011;58877;51.992;4.504;2023-02-26T07:16:05;3.33;;;3.08;;
71176;SDS011;58877;51.992;4.504;2023-02-26T07:18:35;2.52;;;2.36;;
71176;SDS011;58877;51.992;4.504;2023-02-26T07:21:04;2.54;;;2.37;;
71176;SDS011;58877;51.992;4.504;2023-02-26T07:23:31;2.41;;;2.23;;
71176;SDS011;58877;51.992;4.504;2023-02-26T07:25:57;1.90;;;1.73;;
71176;SDS011;58877;51.992;4.504;2023-02-26T07:28:23;1.92;;;1.71;;
71176;SDS011;58877;51.992;4.504;2023-02-26T07:30:54;1.71;;;1.47;;
71176;SDS011;58877;51.992;4.504;2023-02-26T07:33:24;1.46;;;1.25;;
71176;SDS011;58877;51.992;4.504;2023-02-26T07:35:52;1.80;;;1.49;;
71176;SDS011;58877;51.992;4.504;2023-02-26T07:38:19;2.04;;;1.67;;
71176;SDS011;58877;51.992;4.504;2023-02-26T07:40:46;1.83;;;1.50;;
71176;SDS011;58877;51.992;4.504;2023-02-26T07:43:12;1.91;;;1.51;;
71176;SDS011;58877;51.992;4.504;2023-02-26T07:45:50;1.67;;;1.31;;
71176;SDS011;58877;51.992;4.504;2023-02-26T07:48:16;2.01;;;1.56;;
71176;SDS011;58877;51.992;4.504;2023-02-26T07:50:42;2.17;;;1.68;;
71176;SDS011;58877;51.992;4.504;2023-02-26T07:53:10;1.99;;;1.55;;
71176;SDS011;58877;51.992;4.504;2023-02-26T07:55:36;1.70;;;1.30;;
71176;SDS011;58877;51.992;4.504;2023-02-26T07:58:02;2.27;;;1.72;;
71176;SDS011;58877;51.992;4.504;2023-02-26T08:00:28;2.38;;;1.77;;
71176;SDS011;58877;51.992;4.504;2023-02-26T08:02:54;2.05;;;1.50;;
71176;SDS011;58877;51.992;4.504;2023-02-26T08:05:19;2.17;;;1.59;;
71176;SDS011;58877;51.992;4.504;2023-02-26T08:07:45;1.78;;;1.32;;
71176;SDS011;58877;51.992;4.504;2023-02-26T08:10:11;1.91;;;1.42;;
71176;SDS011;58877;51.992;4.504;2023-02-26T08:12:37;1.45;;;1.06;;
71176;SDS011;58877;51.992;4.504;2023-02-26T08:15:03;1.36;;;1.00;;
71176;SDS011;58877;51.992;4.504;2023-02-26T08:17:29;1.53;;;1.12;;
71176;SDS011;58877;51.992;4.504;2023-02-26T08:19:54;1.58;;;1.16;;
71176;SDS011;58877;51.992;4.504;2023-02-26T08:22:20;1.89;;;1.35;;
71176;SDS011;58877;51.992;4.504;2023-02-26T08:24:47;1.78;;;1.26;;
71176;SDS011;58877;51.992;4.504;2023-02-26T08:27:14;1.91;;;1.34;;
71176;SDS011;58877;51.992;4.504;2023-02-26T08:29:40;1.86;;;1.28;;
71176;SDS011;58877;51.992;4.504;2023-02-26T08:32:05;2.32;;;1.59;;
71176;SDS011;58877;51.992;4.504;2023-02-26T08:34:31;2.31;;;1.59;;
71176;SDS011;58877;51.992;4.504;2023-02-26T08:36:57;2.07;;;1.43;;
71176;SDS011;58877;51.992;4.504;2023-02-26T08:39:22;1.65;;;1.14;;
71176;SDS011;58877;51.992;4.504;2023-02-26T08:41:48;1.68;;;1.15;;
71176;SDS011;58877;51.992;4.504;2023-02-26T08:44:13;1.73;;;1.19;;
71176;SDS011;58877;51.992;4.504;2023-02-26T08:46:39;1.52;;;1.05;;
71176;SDS011;58877;51.992;4.504;2023-02-26T08:49:05;1.42;;;0.97;;
71176;SDS011;58877;51.992;4.504;2023-02-26T08:51:31;1.95;;;1.31;;
71176;SDS011;58877;51.992;4.504;2023-02-26T08:53:57;2.62;;;1.73;;
71176;SDS011;58877;51.992;4.504;2023-02-26T08:56:23;2.27;;;1.50;;
71176;SDS011;58877;51.992;4.504;2023-02-26T08:58:48;2.80;;;1.82;;
71176;SDS011;58877;51.992;4.504;2023-02-26T09:01:14;2.06;;;1.32;;
71176;SDS011;58877;51.992;4.504;2023-02-26T09:03:39;1.77;;;1.14;;
71176;SDS011;58877;51.992;4.504;2023-02-26T09:06:05;1.91;;;1.23;;
71176;SDS011;58877;51.992;4.504;2023-02-26T09:08:31;2.80;;;1.80;;
71176;SDS011;58877;51.992;4.504;2023-02-26T09:10:58;2.03;;;1.31;;
71176;SDS011;58877;51.992;4.504;2023-02-26T09:13:25;1.82;;;1.18;;
71176;SDS011;58877;51.992;4.504;2023-02-26T09:15:51;1.99;;;1.30;;
71176;SDS011;58877;51.992;4.504;2023-02-26T09:18:16;1.42;;;0.94;;
71176;SDS011;58877;51.992;4.504;2023-02-26T09:20:43;1.96;;;1.30;;
71176;SDS011;58877;51.992;4.504;2023-02-26T09:23:10;2.06;;;1.37;;
71176;SDS011;58877;51.992;4.504;2023-02-26T09:25:36;2.07;;;1.36;;
71176;SDS011;58877;51.992;4.504;2023-02-26T09:28:03;2.31;;;1.52;;
71176;SDS011;58877;51.992;4.504;2023-02-26T09:30:29;2.07;;;1.35;;
71176;SDS011;58877;51.992;4.504;2023-02-26T09:32:55;1.89;;;1.23;;
71176;SDS011;58877;51.992;4.504;2023-02-26T09:35:21;1.84;;;1.21;;
71176;SDS011;58877;51.992;4.504;2023-02-26T09:37:47;1.56;;;1.02;;
71176;SDS011;58877;51.992;4.504;2023-02-26T09:43:25;1.57;;;1.02;;
71176;SDS011;58877;51.992;4.504;2023-02-26T09:46:21;1.79;;;1.17;;
71176;SDS011;58877;51.992;4.504;2023-02-26T09:49:01;1.81;;;1.17;;
71176;SDS011;58877;51.992;4.504;2023-02-26T09:51:41;1.57;;;1.01;;
71176;SDS011;58877;51.992;4.504;2023-02-26T09:54:16;1.69;;;1.09;;
71176;SDS011;58877;51.992;4.504;2023-02-26T09:56:48;1.84;;;1.20;;
71176;SDS011;58877;51.992;4.504;2023-02-26T09:59:17;1.37;;;0.90;;
71176;SDS011;58877;51.992;4.504;2023-02-26T10:04:50;1.66;;;1.09;;
71176;SDS011;58877;51.992;4.504;2023-02-26T10:12:45;1.49;;;0.97;;
71176;SDS011;58877;51.992;4.504;2023-02-26T10:15:22;1.85;;;1.21;;
71176;SDS011;58877;51.992;4.504;2023-02-26T10:18:02;1.42;;;0.92;;
71176;SDS011;58877;51.992;4.504;2023-02-26T10:20:44;2.08;;;1.36;;
71176;SDS011;58877;51.992;4.504;2023-02-26T10:23:34;1.79;;;1.18;;
71176;SDS011;58877;51.992;4.504;2023-02-26T10:26:12;1.48;;;1.01;;
71176;SDS011;58877;51.992;4.504;2023-02-26T10:28:58;1.79;;;1.22;;
71176;SDS011;58877;51.992;4.504;2023-02-26T10:34:51;1.35;;;0.92;;
71176;SDS011;58877;51.992;4.504;2023-02-26T10:40:15;1.26;;;0.87;;
71176;SDS011;58877;51.992;4.504;2023-02-26T10:43:02;1.48;;;1.01;;
71176;SDS011;58877;51.992;4.504;2023-02-26T10:48:34;1.42;;;0.98;;
71176;SDS011;58877;51.992;4.504;2023-02-26T10:51:25;1.29;;;0.88;;
71176;SDS011;58877;51.992;4.504;2023-02-26T10:54:02;2.26;;;1.52;;
71176;SDS011;58877;51.992;4.504;2023-02-26T10:56:48;1.04;;;0.70;;
71176;SDS011;58877;51.992;4.504;2023-02-26T10:59:14;1.37;;;0.92;;
71176;SDS011;58877;51.992;4.504;2023-02-26T11:01:40;1.29;;;0.87;;
71176;SDS011;58877;51.992;4.504;2023-02-26T11:04:06;1.25;;;0.85;;
71176;SDS011;58877;51.992;4.504;2023-02-26T11:06:41;1.36;;;0.94;;
71176;SDS011;58877;51.992;4.504;2023-02-26T11:09:19;1.49;;;1.01;;
71176;SDS011;58877;51.992;4.504;2023-02-26T11:14:21;1.47;;;0.99;;
71176;SDS011;58877;51.992;4.504;2023-02-26T11:16:57;1.37;;;0.93;;
71176;SDS011;58877;51.992;4.504;2023-02-26T11:19:34;1.24;;;0.84;;
71176;SDS011;58877;51.992;4.504;2023-02-26T11:22:04;1.41;;;0.96;;
71176;SDS011;58877;51.992;4.504;2023-02-26T11:24:38;1.05;;;0.72;;
71176;SDS011;58877;51.992;4.504;2023-02-26T11:27:19;1.39;;;0.96;;
71176;SDS011;58877;51.992;4.504;2023-02-26T11:29:53;1.64;;;1.14;;
71176;SDS011;58877;51.992;4.504;2023-02-26T11:32:22;1.52;;;1.05;;
71176;SDS011;58877;51.992;4.504;2023-02-26T11:34:54;1.21;;;0.86;;
71176;SDS011;58877;51.992;4.504;2023-02-26T11:37:26;1.53;;;1.09;;
71176;SDS011;58877;51.992;4.504;2023-02-26T11:40:12;1.59;;;1.11;;
71176;SDS011;58877;51.992;4.504;2023-02-26T11:42:51;1.17;;;0.81;;
71176;SDS011;58877;51.992;4.504;2023-02-26T11:45:20;1.29;;;0.89;;
71176;SDS011;58877;51.992;4.504;2023-02-26T11:47:47;1.21;;;0.83;;
71176;SDS011;58877;51.992;4.504;2023-02-26T11:50:20;1.27;;;0.87;;
71176;SDS011;58877;51.992;4.504;2023-02-26T11:52:53;1.24;;;0.84;;
71176;SDS011;58877;51.992;4.504;2023-02-26T11:57:54;1.65;;;1.12;;
71176;SDS011;58877;51.992;4.504;2023-02-26T12:00:28;1.33;;;0.91;;
71176;SDS011;58877;51.992;4.504;2023-02-26T12:03:07;1.27;;;0.87;;
71176;SDS011;58877;51.992;4.504;2023-02-26T12:05:41;1.23;;;0.82;;
71176;SDS011;58877;51.992;4.504;2023-02-26T12:08:14;1.38;;;0.92;;
71176;SDS011;58877;51.992;4.504;2023-02-26T12:10:52;1.73;;;1.16;;
71176;SDS011;58877;51.992;4.504;2023-02-26T12:25:17;1.26;;;0.87;;
71176;SDS011;58877;51.992;4.504;2023-02-26T12:28:38;1.47;;;1.01;;
71176;SDS011;58877;51.992;4.504;2023-02-26T12:39:39;1.72;;;1.17;;
71176;SDS011;58877;51.992;4.504;2023-02-26T12:42:24;1.47;;;1.01;;
71176;SDS011;58877;51.992;4.504;2023-02-26T12:54:05;1.68;;;1.16;;
71176;SDS011;58877;51.992;4.504;2023-02-26T12:57:05;1.61;;;1.10;;
71176;SDS011;58877;51.992;4.504;2023-02-26T13:08:06;1.42;;;0.98;;
71176;SDS011;58877;51.992;4.504;2023-02-26T13:10:50;1.91;;;1.31;;
71176;SDS011;58877;51.992;4.504;2023-02-26T13:13:36;1.29;;;0.88;;
71176;SDS011;58877;51.992;4.504;2023-02-26T13:16:12;1.38;;;0.95;;
71176;SDS011;58877;51.992;4.504;2023-02-26T13:21:52;1.47;;;1.02;;
71176;SDS011;58877;51.992;4.504;2023-02-26T13:24:25;1.90;;;1.32;;
71176;SDS011;58877;51.992;4.504;2023-02-26T13:27:01;1.45;;;1.02;;
71176;SDS011;58877;51.992;4.504;2023-02-26T13:29:36;1.36;;;0.97;;
71176;SDS011;58877;51.992;4.504;2023-02-26T13:32:16;1.25;;;0.90;;
71176;SDS011;58877;51.992;4.504;2023-02-26T13:34:51;1.31;;;0.95;;
71176;SDS011;58877;51.992;4.504;2023-02-26T13:37:26;1.24;;;0.91;;
71176;SDS011;58877;51.992;4.504;2023-02-26T13:45:37;1.36;;;1.00;;
71176;SDS011;58877;51.992;4.504;2023-02-26T13:51:34;1.17;;;0.84;;
71176;SDS011;58877;51.992;4.504;2023-02-26T13:57:06;1.34;;;0.99;;
71176;SDS011;58877;51.992;4.504;2023-02-26T14:04:58;1.47;;;1.08;;
71176;SDS011;58877;51.992;4.504;2023-02-26T14:13:14;1.13;;;0.84;;
71176;SDS011;58877;51.992;4.504;2023-02-26T14:15:52;1.38;;;1.03;;
71176;SDS011;58877;51.992;4.504;2023-02-26T14:18:35;1.33;;;1.01;;
71176;SDS011;58877;51.992;4.504;2023-02-26T14:23:51;0.98;;;0.76;;
71176;SDS011;58877;51.992;4.504;2023-02-26T14:26:23;0.88;;;0.68;;
71176;SDS011;58877;51.992;4.504;2023-02-26T14:35:12;1.28;;;0.96;;
71176;SDS011;58877;51.992;4.504;2023-02-26T14:37:23;2.14;;;1.59;;
71176;SDS011;58877;51.992;4.504;2023-02-26T14:39:55;1.20;;;0.92;;
71176;SDS011;58877;51.992;4.504;2023-02-26T14:42:33;1.38;;;1.06;;
71176;SDS011;58877;51.992;4.504;2023-02-26T14:45:17;1.30;;;1.01;;
71176;SDS011;58877;51.992;4.504;2023-02-26T14:47:58;0.99;;;0.78;;
71176;SDS011;58877;51.992;4.504;2023-02-26T14:53:28;1.66;;;1.25;;
71176;SDS011;58877;51.992;4.504;2023-02-26T14:58:58;1.45;;;1.10;;
71176;SDS011;58877;51.992;4.504;2023-02-26T15:06:59;1.15;;;0.88;;
71176;SDS011;58877;51.992;4.504;2023-02-26T15:12:41;1.13;;;0.85;;
71176;SDS011;58877;51.992;4.504;2023-02-26T15:18:09;1.08;;;0.82;;
71176;SDS011;58877;51.992;4.504;2023-02-26T15:23:39;1.45;;;1.11;;
71176;SDS011;58877;51.992;4.504;2023-02-26T15:28:50;0.97;;;0.72;;
71176;SDS011;58877;51.992;4.504;2023-02-26T15:31:19;1.26;;;0.93;;
71176;SDS011;58877;51.992;4.504;2023-02-26T15:33:55;0.88;;;0.64;;
71176;SDS011;58877;51.992;4.504;2023-02-26T15:36:22;0.95;;;0.70;;
71176;SDS011;58877;51.992;4.504;2023-02-26T15:38:55;1.13;;;0.83;;
71176;SDS011;58877;51.992;4.504;2023-02-26T15:41:25;1.00;;;0.73;;
71176;SDS011;58877;51.992;4.504;2023-02-26T15:43:55;1.32;;;0.97;;
71176;SDS011;58877;51.992;4.504;2023-02-26T15:46:32;1.12;;;0.84;;
71176;SDS011;58877;51.992;4.504;2023-02-26T15:49:04;1.04;;;0.78;;
71176;SDS011;58877;51.992;4.504;2023-02-26T15:51:54;0.96;;;0.72;;
71176;SDS011;58877;51.992;4.504;2023-02-26T15:54:27;0.90;;;0.67;;
71176;SDS011;58877;51.992;4.504;2023-02-26T15:57:00;0.94;;;0.70;;
71176;SDS011;58877;51.992;4.504;2023-02-26T15:59:28;1.27;;;0.95;;
71176;SDS011;58877;51.992;4.504;2023-02-26T16:01:57;1.33;;;0.99;;
71176;SDS011;58877;51.992;4.504;2023-02-26T16:04:26;1.13;;;0.84;;
71176;SDS011;58877;51.992;4.504;2023-02-26T16:06:53;1.15;;;0.86;;
71176;SDS011;58877;51.992;4.504;2023-02-26T16:11:51;1.63;;;1.20;;
71176;SDS011;58877;51.992;4.504;2023-02-26T16:14:23;1.05;;;0.77;;
71176;SDS011;58877;51.992;4.504;2023-02-26T16:16:54;1.22;;;0.89;;
71176;SDS011;58877;51.992;4.504;2023-02-26T16:22:04;1.37;;;0.97;;
71176;SDS011;58877;51.992;4.504;2023-02-26T16:25:00;1.82;;;1.25;;
71176;SDS011;58877;51.992;4.504;2023-02-26T16:27:32;1.61;;;1.12;;
71176;SDS011;58877;51.992;4.504;2023-02-26T16:30:00;1.87;;;1.30;;
71176;SDS011;58877;51.992;4.504;2023-02-26T16:32:30;1.55;;;1.09;;
71176;SDS011;58877;51.992;4.504;2023-02-26T16:34:59;1.72;;;1.21;;
71176;SDS011;58877;51.992;4.504;2023-02-26T16:37:43;1.92;;;1.35;;
71176;SDS011;58877;51.992;4.504;2023-02-26T16:42:52;1.51;;;1.05;;
71176;SDS011;58877;51.992;4.504;2023-02-26T16:47:58;1.73;;;1.25;;
71176;SDS011;58877;51.992;4.504;2023-02-26T16:50:28;1.86;;;1.34;;
71176;SDS011;58877;51.992;4.504;2023-02-26T16:53:18;1.60;;;1.16;;
71176;SDS011;58877;51.992;4.504;2023-02-26T16:55:48;2.09;;;1.52;;
71176;SDS011;58877;51.992;4.504;2023-02-26T16:58:16;1.78;;;1.31;;
71176;SDS011;58877;51.992;4.504;2023-02-26T17:00:46;1.82;;;1.34;;
71176;SDS011;58877;51.992;4.504;2023-02-26T17:03:22;1.93;;;1.43;;
71176;SDS011;58877;51.992;4.504;2023-02-26T17:08:20;1.96;;;1.46;;
71176;SDS011;58877;51.992;4.504;2023-02-26T17:10:59;1.79;;;1.35;;
71176;SDS011;58877;51.992;4.504;2023-02-26T17:13:30;2.03;;;1.55;;
71176;SDS011;58877;51.992;4.504;2023-02-26T17:16:01;2.10;;;1.62;;
71176;SDS011;58877;51.992;4.504;2023-02-26T17:18:29;1.90;;;1.49;;
71176;SDS011;58877;51.992;4.504;2023-02-26T17:20:55;1.47;;;1.15;;
71176;SDS011;58877;51.992;4.504;2023-02-26T17:23:24;1.83;;;1.46;;
71176;SDS011;58877;51.992;4.504;2023-02-26T17:25:55;1.29;;;1.06;;
71176;SDS011;58877;51.992;4.504;2023-02-26T17:28:27;1.63;;;1.33;;
71176;SDS011;58877;51.992;4.504;2023-02-26T17:30:56;1.82;;;1.47;;
71176;SDS011;58877;51.992;4.504;2023-02-26T17:33:21;1.91;;;1.52;;
71176;SDS011;58877;51.992;4.504;2023-02-26T17:35:47;2.99;;;2.41;;
71176;SDS011;58877;51.992;4.504;2023-02-26T17:38:14;2.58;;;2.12;;
71176;SDS011;58877;51.992;4.504;2023-02-26T17:40:44;2.36;;;1.98;;
71176;SDS011;58877;51.992;4.504;2023-02-26T17:43:11;2.18;;;1.84;;
71176;SDS011;58877;51.992;4.504;2023-02-26T17:45:38;2.00;;;1.70;;
71176;SDS011;58877;51.992;4.504;2023-02-26T17:48:05;1.98;;;1.67;;
71176;SDS011;58877;51.992;4.504;2023-02-26T17:50:37;2.42;;;2.04;;
71176;SDS011;58877;51.992;4.504;2023-02-26T17:53:17;2.39;;;2.09;;
71176;SDS011;58877;51.992;4.504;2023-02-26T17:55:45;2.22;;;2.03;;
71176;SDS011;58877;51.992;4.504;2023-02-26T17:58:16;4.39;;;3.98;;
71176;SDS011;58877;51.992;4.504;2023-02-26T18:00:43;42.97;;;40.63;;
71176;SDS011;58877;51.992;4.504;2023-02-26T18:03:13;54.34;;;51.79;;
71176;SDS011;58877;51.992;4.504;2023-02-26T18:05:42;47.66;;;45.72;;
71176;SDS011;58877;51.992;4.504;2023-02-26T18:08:41;67.08;;;65.31;;
71176;SDS011;58877;51.992;4.504;2023-02-26T18:11:00;44.83;;;43.75;;
71176;SDS011;58877;51.992;4.504;2023-02-26T18:13:27;20.29;;;19.42;;
71176;SDS011;58877;51.992;4.504;2023-02-26T18:15:53;5.31;;;5.04;;